sensor_id;sensor_type;location;lat;lon;timestamp;pressure;altitude;pressure_sealevel;temperature;humidity
5753;BME280;2901;42.140;24.760;2023-01-10T00:01:25;99115.19;;;6.59;100.00
5753;BME280;2901;42.140;24.760;2023-01-10T00:03:51;99129.75;;;6.62;100.00
5753;BME280;2901;42.140;24.760;2023-01-10T00:06:16;99122.94;;;6.67;100.00
5753;BME280;2901;42.140;24.760;2023-01-10T00:08:42;99119.50;;;6.68;100.00
5753;BME280;2901;42.140;24.760;2023-01-10T00:11:07;99117.78;;;6.70;100.00
5753;BME280;2901;42.140;24.760;2023-01-10T00:13:55;99112.66;;;6.76;100.00
5753;BME280;2901;42.140;24.760;2023-01-10T00:16:21;99111.81;;;6.77;100.00
5753;BME280;2901;42.140;24.760;2023-01-10T00:18:47;99104.09;;;6.68;100.00
5753;BME280;2901;42.140;24.760;2023-01-10T00:21:13;99085.22;;;6.67;100.00
5753;BME280;2901;42.140;24.760;2023-01-10T00:23:39;99091.22;;;6.68;100.00
5753;BME280;2901;42.140;24.760;2023-01-10T00:26:05;99089.50;;;6.76;100.00
5753;BME280;2901;42.140;24.760;2023-01-10T00:28:31;99092.06;;;6.79;100.00
5753;BME280;2901;42.140;24.760;2023-01-10T00:30:59;99078.38;;;6.80;100.00
5753;BME280;2901;42.140;24.760;2023-01-10T00:33:26;99072.34;;;6.79;100.00
5753;BME280;2901;42.140;24.760;2023-01-10T00:35:54;99074.06;;;6.76;100.00
5753;BME280;2901;42.140;24.760;2023-01-10T00:38:19;99062.06;;;6.73;100.00
5753;BME280;2901;42.140;24.760;2023-01-10T00:40:45;99063.75;;;6.67;100.00
5753;BME280;2901;42.140;24.760;2023-01-10T00:43:10;99050.03;;;6.63;100.00
5753;BME280;2901;42.140;24.760;2023-01-10T00:45:55;99050.03;;;6.69;100.00
5753;BME280;2901;42.140;24.760;2023-01-10T00:48:22;99056.88;;;6.63;100.00
5753;BME280;2901;42.140;24.760;2023-01-10T00:50:47;99053.47;;;6.55;100.00
5753;BME280;2901;42.140;24.760;2023-01-10T00:53:13;99074.91;;;6.63;100.00
5753;BME280;2901;42.140;24.760;2023-01-10T00:55:38;99058.63;;;6.61;100.00
5753;BME280;2901;42.140;24.760;2023-01-10T00:58:04;99063.75;;;6.67;100.00
5753;BME280;2901;42.140;24.760;2023-01-10T01:00:30;99063.75;;;6.58;100.00
5753;BME280;2901;42.140;24.760;2023-01-10T01:02:55;99067.16;;;6.57;100.00
5753;BME280;2901;42.140;24.760;2023-01-10T01:05:21;99056.84;;;6.49;100.00
5753;BME280;2901;42.140;24.760;2023-01-10T01:07:51;99042.28;;;6.47;100.00
5753;BME280;2901;42.140;24.760;2023-01-10T01:10:16;99042.25;;;6.38;100.00
5753;BME280;2901;42.140;24.760;2023-01-10T01:12:52;99052.56;;;6.41;100.00
5753;BME280;2901;42.140;24.760;2023-01-10T01:15:18;99047.41;;;6.41;100.00
5753;BME280;2901;42.140;24.760;2023-01-10T01:17:43;99048.28;;;6.44;100.00
5753;BME280;2901;42.140;24.760;2023-01-10T01:20:09;99055.97;;;6.46;100.00
5753;BME280;2901;42.140;24.760;2023-01-10T01:22:35;99051.72;;;6.45;100.00
5753;BME280;2901;42.140;24.760;2023-01-10T01:25:00;99040.50;;;6.26;100.00
5753;BME280;2901;42.140;24.760;2023-01-10T01:27:26;99036.22;;;6.19;100.00
5753;BME280;2901;42.140;24.760;2023-01-10T01:29:51;99042.25;;;6.25;100.00
5753;BME280;2901;42.140;24.760;2023-01-10T01:32:16;99049.06;;;6.22;100.00
5753;BME280;2901;42.140;24.760;2023-01-10T01:34:43;99038.78;;;6.22;100.00
5753;BME280;2901;42.140;24.760;2023-01-10T01:37:08;99043.97;;;6.31;100.00
5753;BME280;2901;42.140;24.760;2023-01-10T01:39:34;99037.09;;;6.36;100.00
5753;BME280;2901;42.140;24.760;2023-01-10T01:41:59;99027.69;;;6.38;100.00
5753;BME280;2901;42.140;24.760;2023-01-10T01:44:34;98998.53;;;6.30;100.00
5753;BME280;2901;42.140;24.760;2023-01-10T01:47:21;99021.69;;;6.42;100.00
5753;BME280;2901;42.140;24.760;2023-01-10T01:49:49;98983.13;;;6.42;100.00
5753;BME280;2901;42.140;24.760;2023-01-10T01:52:20;98993.38;;;6.36;100.00
5753;BME280;2901;42.140;24.760;2023-01-10T01:54:47;98983.13;;;6.47;100.00
5753;BME280;2901;42.140;24.760;2023-01-10T01:57:17;98996.00;;;6.54;100.00
5753;BME280;2901;42.140;24.760;2023-01-10T01:59:47;98996.88;;;6.56;100.00
5753;BME280;2901;42.140;24.760;2023-01-10T02:02:27;98993.44;;;6.51;100.00
5753;BME280;2901;42.140;24.760;2023-01-10T02:05:06;98975.41;;;6.56;100.00
5753;BME280;2901;42.140;24.760;2023-01-10T02:07:35;98959.13;;;6.49;100.00
5753;BME280;2901;42.140;24.760;2023-01-10T02:10:08;98961.72;;;6.63;100.00
5753;BME280;2901;42.140;24.760;2023-01-10T02:12:35;98952.31;;;6.65;100.00
5753;BME280;2901;42.140;24.760;2023-01-10T02:15:02;98941.16;;;6.61;100.00
5753;BME280;2901;42.140;24.760;2023-01-10T02:17:28;98947.13;;;6.72;100.00
5753;BME280;2901;42.140;24.760;2023-01-10T02:33:26;98896.56;;;6.55;100.00
5753;BME280;2901;42.140;24.760;2023-01-10T02:35:58;98894.88;;;6.58;100.00
5753;BME280;2901;42.140;24.760;2023-01-10T02:38:28;98896.53;;;6.49;100.00
5753;BME280;2901;42.140;24.760;2023-01-10T02:41:11;98924.84;;;6.43;100.00
5753;BME280;2901;42.140;24.760;2023-01-10T02:44:03;98923.13;;;6.22;100.00
5753;BME280;2901;42.140;24.760;2023-01-10T02:46:31;98927.34;;;6.06;100.00
5753;BME280;2901;42.140;24.760;2023-01-10T02:48:58;98927.34;;;6.00;100.00
5753;BME280;2901;42.140;24.760;2023-01-10T02:51:28;98922.19;;;6.00;100.00
5753;BME280;2901;42.140;24.760;2023-01-10T02:54:15;98929.06;;;6.03;100.00
5753;BME280;2901;42.140;24.760;2023-01-10T03:02:37;98921.41;;;6.18;100.00
5753;BME280;2901;42.140;24.760;2023-01-10T03:10:58;98913.69;;;6.12;100.00
5753;BME280;2901;42.140;24.760;2023-01-10T03:16:09;98923.09;;;6.05;100.00
5753;BME280;2901;42.140;24.760;2023-01-10T03:18:42;98910.22;;;5.98;100.00
5753;BME280;2901;42.140;24.760;2023-01-10T03:21:10;98906.78;;;5.91;100.00
5753;BME280;2901;42.140;24.760;2023-01-10T03:23:36;98894.78;;;5.95;100.00
5753;BME280;2901;42.140;24.760;2023-01-10T03:26:04;98896.50;;;5.91;100.00
5753;BME280;2901;42.140;24.760;2023-01-10T03:28:34;98900.75;;;5.86;100.00
5753;BME280;2901;42.140;24.760;2023-01-10T03:31:10;98906.66;;;5.73;100.00
5753;BME280;2901;42.140;24.760;2023-01-10T03:33:38;98897.28;;;5.69;100.00
5753;BME280;2901;42.140;24.760;2023-01-10T03:38:53;98876.72;;;5.72;100.00
5753;BME280;2901;42.140;24.760;2023-01-10T03:41:46;98863.06;;;5.79;100.00
5753;BME280;2901;42.140;24.760;2023-01-10T03:47:07;98878.47;;;5.79;100.00
5753;BME280;2901;42.140;24.760;2023-01-10T03:49:36;98877.56;;;5.71;100.00
5753;BME280;2901;42.140;24.760;2023-01-10T03:52:03;98880.13;;;5.71;100.00
5753;BME280;2901;42.140;24.760;2023-01-10T03:54:30;98858.75;;;5.81;100.00
5753;BME280;2901;42.140;24.760;2023-01-10T03:56:55;98851.94;;;5.88;100.00
5753;BME280;2901;42.140;24.760;2023-01-10T03:59:24;98847.69;;;5.96;100.00
5753;BME280;2901;42.140;24.760;2023-01-10T04:01:50;98830.56;;;6.02;100.00
5753;BME280;2901;42.140;24.760;2023-01-10T04:04:16;98816.84;;;6.09;100.00
5753;BME280;2901;42.140;24.760;2023-01-10T04:06:42;98808.28;;;6.19;100.00
5753;BME280;2901;42.140;24.760;2023-01-10T04:09:07;98802.31;;;6.20;100.00
5753;BME280;2901;42.140;24.760;2023-01-10T04:11:33;98804.00;;;6.35;100.00
5753;BME280;2901;42.140;24.760;2023-01-10T04:13:59;98815.13;;;6.40;100.00
5753;BME280;2901;42.140;24.760;2023-01-10T04:16:24;98823.72;;;6.41;100.00
5753;BME280;2901;42.140;24.760;2023-01-10T04:18:49;98840.84;;;6.45;100.00
5753;BME280;2901;42.140;24.760;2023-01-10T04:21:15;98817.72;;;6.30;100.00
5753;BME280;2901;42.140;24.760;2023-01-10T04:23:40;98838.28;;;6.34;100.00
5753;BME280;2901;42.140;24.760;2023-01-10T04:26:07;98843.41;;;6.43;100.00
5753;BME280;2901;42.140;24.760;2023-01-10T04:28:32;98847.69;;;6.49;100.00
5753;BME280;2901;42.140;24.760;2023-01-10T04:30:58;98838.28;;;6.51;100.00
5753;BME280;2901;42.140;24.760;2023-01-10T04:33:23;98825.44;;;6.45;100.00
5753;BME280;2901;42.140;24.760;2023-01-10T04:35:51;98820.28;;;6.43;100.00
5753;BME280;2901;42.140;24.760;2023-01-10T04:38:17;98825.41;;;6.43;100.00
5753;BME280;2901;42.140;24.760;2023-01-10T04:40:43;98828.00;;;6.43;100.00
5753;BME280;2901;42.140;24.760;2023-01-10T04:43:09;98821.97;;;6.43;100.00
5753;BME280;2901;42.140;24.760;2023-01-10T04:45:35;98819.44;;;6.34;100.00
5753;BME280;2901;42.140;24.760;2023-01-10T04:48:01;98820.28;;;6.34;100.00
5753;BME280;2901;42.140;24.760;2023-01-10T04:50:27;98831.44;;;6.32;100.00
5753;BME280;2901;42.140;24.760;2023-01-10T04:52:52;98840.84;;;6.31;100.00
5753;BME280;2901;42.140;24.760;2023-01-10T04:55:17;98825.41;;;6.16;100.00
5753;BME280;2901;42.140;24.760;2023-01-10T04:57:43;98792.88;;;5.94;100.00
5753;BME280;2901;42.140;24.760;2023-01-10T05:00:09;98820.31;;;6.05;100.00
5753;BME280;2901;42.140;24.760;2023-01-10T05:02:36;98818.53;;;5.85;100.00
5753;BME280;2901;42.140;24.760;2023-01-10T05:05:07;98808.22;;;5.77;100.00
5753;BME280;2901;42.140;24.760;2023-01-10T05:07:32;98801.38;;;5.71;100.00
5753;BME280;2901;42.140;24.760;2023-01-10T05:09:58;98809.09;;;5.71;100.00
5753;BME280;2901;42.140;24.760;2023-01-10T05:12:23;98810.78;;;5.63;100.00
5753;BME280;2901;42.140;24.760;2023-01-10T05:14:48;98808.19;;;5.54;100.00
5753;BME280;2901;42.140;24.760;2023-01-10T05:17:14;98816.75;;;5.52;100.00
5753;BME280;2901;42.140;24.760;2023-01-10T05:19:39;98797.94;;;5.62;100.00
5753;BME280;2901;42.140;24.760;2023-01-10T05:22:04;98799.69;;;5.69;100.00
5753;BME280;2901;42.140;24.760;2023-01-10T05:24:30;98796.25;;;5.76;100.00
5753;BME280;2901;42.140;24.760;2023-01-10T05:26:55;98799.66;;;5.80;100.00
5753;BME280;2901;42.140;24.760;2023-01-10T05:29:20;98799.69;;;5.72;100.00
5753;BME280;2901;42.140;24.760;2023-01-10T05:31:46;98783.38;;;5.64;100.00
5753;BME280;2901;42.140;24.760;2023-01-10T05:34:11;98780.84;;;5.68;100.00
5753;BME280;2901;42.140;24.760;2023-01-10T05:36:37;98775.72;;;5.76;100.00
5753;BME280;2901;42.140;24.760;2023-01-10T05:39:03;98771.41;;;5.70;100.00
5753;BME280;2901;42.140;24.760;2023-01-10T05:41:28;98758.59;;;5.72;100.00
5753;BME280;2901;42.140;24.760;2023-01-10T05:43:53;98754.28;;;5.77;100.00
5753;BME280;2901;42.140;24.760;2023-01-10T05:46:19;98766.28;;;5.78;100.00
5753;BME280;2901;42.140;24.760;2023-01-10T05:48:44;98768.84;;;5.76;100.00
5753;BME280;2901;42.140;24.760;2023-01-10T05:51:10;98768.84;;;5.81;100.00
5753;BME280;2901;42.140;24.760;2023-01-10T05:53:35;98773.16;;;5.90;100.00
5753;BME280;2901;42.140;24.760;2023-01-10T05:56:01;98762.91;;;5.97;100.00
5753;BME280;2901;42.140;24.760;2023-01-10T05:58:28;98767.19;;;6.04;100.00
5753;BME280;2901;42.140;24.760;2023-01-10T06:00:54;98770.59;;;6.11;100.00
5753;BME280;2901;42.140;24.760;2023-01-10T06:03:20;98775.75;;;6.02;100.00
5753;BME280;2901;42.140;24.760;2023-01-10T06:05:46;98792.88;;;6.01;100.00
5753;BME280;2901;42.140;24.760;2023-01-10T06:08:11;98795.47;;;6.12;100.00
5753;BME280;2901;42.140;24.760;2023-01-10T06:10:36;98778.31;;;6.09;100.00
5753;BME280;2901;42.140;24.760;2023-01-10T06:13:02;98775.75;;;6.14;100.00
5753;BME280;2901;42.140;24.760;2023-01-10T06:15:29;98781.75;;;6.05;100.00
5753;BME280;2901;42.140;24.760;2023-01-10T06:17:54;98782.59;;;6.01;100.00
5753;BME280;2901;42.140;24.760;2023-01-10T06:20:20;98785.19;;;5.95;100.00
5753;BME280;2901;42.140;24.760;2023-01-10T06:22:45;98782.56;;;5.85;100.00
5753;BME280;2901;42.140;24.760;2023-01-10T06:25:11;98788.56;;;5.79;100.00
5753;BME280;2901;42.140;24.760;2023-01-10T06:27:41;98793.66;;;5.73;100.00
5753;BME280;2901;42.140;24.760;2023-01-10T06:30:08;98790.25;;;5.62;100.00
5753;BME280;2901;42.140;24.760;2023-01-10T06:32:34;98797.06;;;5.48;100.00
5753;BME280;2901;42.140;24.760;2023-01-10T06:35:00;98791.88;;;5.40;100.00
5753;BME280;2901;42.140;24.760;2023-01-10T06:37:25;98775.59;;;5.24;100.00
5753;BME280;2901;42.140;24.760;2023-01-10T06:39:51;98772.16;;;5.24;100.00
5753;BME280;2901;42.140;24.760;2023-01-10T06:42:16;98783.28;;;5.21;100.00
5753;BME280;2901;42.140;24.760;2023-01-10T06:44:41;98774.72;;;5.16;100.00
5753;BME280;2901;42.140;24.760;2023-01-10T06:47:07;98777.31;;;5.16;100.00
5753;BME280;2901;42.140;24.760;2023-01-10T06:49:32;98776.47;;;5.23;100.00
5753;BME280;2901;42.140;24.760;2023-01-10T06:51:58;98785.84;;;5.15;100.00
5753;BME280;2901;42.140;24.760;2023-01-10T06:54:23;98757.56;;;5.00;100.00
5753;BME280;2901;42.140;24.760;2023-01-10T06:56:48;98778.13;;;5.06;100.00
5753;BME280;2901;42.140;24.760;2023-01-10T06:59:14;98779.78;;;4.95;100.00
5753;BME280;2901;42.140;24.760;2023-01-10T07:01:40;98780.63;;;4.97;100.00
5753;BME280;2901;42.140;24.760;2023-01-10T07:04:05;98772.91;;;4.94;100.00
5753;BME280;2901;42.140;24.760;2023-01-10T07:06:31;98764.31;;;4.74;100.00
5753;BME280;2901;42.140;24.760;2023-01-10T07:08:56;98766.78;;;4.60;100.00
5753;BME280;2901;42.140;24.760;2023-01-10T07:11:22;98764.22;;;4.62;100.00
5753;BME280;2901;42.140;24.760;2023-01-10T07:13:47;98754.84;;;4.68;100.00
5753;BME280;2901;42.140;24.760;2023-01-10T07:16:14;98753.16;;;4.72;100.00
5753;BME280;2901;42.140;24.760;2023-01-10T07:18:41;98754.03;;;4.79;100.00
5753;BME280;2901;42.140;24.760;2023-01-10T07:21:07;98750.59;;;4.75;100.00
5753;BME280;2901;42.140;24.760;2023-01-10T07:23:34;98751.50;;;4.77;100.00
5753;BME280;2901;42.140;24.760;2023-01-10T07:26:04;98754.06;;;4.83;100.00
5753;BME280;2901;42.140;24.760;2023-01-10T07:28:30;98726.66;;;4.70;100.00
5753;BME280;2901;42.140;24.760;2023-01-10T07:30:59;98729.28;;;4.81;100.00
5753;BME280;2901;42.140;24.760;2023-01-10T07:33:25;98711.28;;;4.71;100.00
5753;BME280;2901;42.140;24.760;2023-01-10T07:35:50;98716.47;;;4.87;100.00
5753;BME280;2901;42.140;24.760;2023-01-10T07:38:15;98708.81;;;4.96;100.00
5753;BME280;2901;42.140;24.760;2023-01-10T07:40:41;98713.94;;;4.99;100.00
5753;BME280;2901;42.140;24.760;2023-01-10T07:43:06;98703.69;;;4.96;100.00
5753;BME280;2901;42.140;24.760;2023-01-10T07:45:31;98707.97;;;5.01;100.00
5753;BME280;2901;42.140;24.760;2023-01-10T07:48:01;98698.59;;;5.12;100.00
5753;BME280;2901;42.140;24.760;2023-01-10T07:50:30;98704.59;;;5.10;100.00
5753;BME280;2901;42.140;24.760;2023-01-10T07:52:56;98701.16;;;5.12;100.00
5753;BME280;2901;42.140;24.760;2023-01-10T07:55:22;98704.56;;;5.14;100.00
5753;BME280;2901;42.140;24.760;2023-01-10T07:57:51;98699.47;;;5.23;100.00
5753;BME280;2901;42.140;24.760;2023-01-10T08:00:17;98696.91;;;5.25;100.00
5753;BME280;2901;42.140;24.760;2023-01-10T08:02:43;98681.53;;;5.39;100.00
5753;BME280;2901;42.140;24.760;2023-01-10T08:05:09;98668.69;;;5.51;100.00
5753;BME280;2901;42.140;24.760;2023-01-10T08:07:35;98668.69;;;5.58;100.00
5753;BME280;2901;42.140;24.760;2023-01-10T08:10:00;98667.84;;;5.61;100.00
5753;BME280;2901;42.140;24.760;2023-01-10T08:12:26;98659.25;;;5.63;100.00
5753;BME280;2901;42.140;24.760;2023-01-10T08:14:51;98649.88;;;5.59;100.00
5753;BME280;2901;42.140;24.760;2023-01-10T08:17:17;98654.13;;;5.60;100.00
5753;BME280;2901;42.140;24.760;2023-01-10T08:19:43;98659.28;;;5.45;100.00
5753;BME280;2901;42.140;24.760;2023-01-10T08:22:08;98666.97;;;5.38;100.00
5753;BME280;2901;42.140;24.760;2023-01-10T08:24:34;98681.50;;;5.37;100.00
5753;BME280;2901;42.140;24.760;2023-01-10T08:27:00;98677.22;;;5.35;100.00
5753;BME280;2901;42.140;24.760;2023-01-10T08:29:26;98684.09;;;5.30;100.00
5753;BME280;2901;42.140;24.760;2023-01-10T08:31:51;98674.66;;;5.19;100.00
5753;BME280;2901;42.140;24.760;2023-01-10T08:34:17;98670.38;;;5.15;100.00
5753;BME280;2901;42.140;24.760;2023-01-10T08:36:42;98657.53;;;5.12;100.00
5753;BME280;2901;42.140;24.760;2023-01-10T08:39:08;98652.38;;;5.02;100.00
5753;BME280;2901;42.140;24.760;2023-01-10T08:41:33;98653.25;;;5.11;100.00
5753;BME280;2901;42.140;24.760;2023-01-10T08:43:58;98652.41;;;5.12;100.00
5753;BME280;2901;42.140;24.760;2023-01-10T08:46:24;98643.00;;;5.22;100.00
5753;BME280;2901;42.140;24.760;2023-01-10T08:48:50;98648.16;;;5.23;100.00
5753;BME280;2901;42.140;24.760;2023-01-10T08:51:16;98645.56;;;5.20;100.00
5753;BME280;2901;42.140;24.760;2023-01-10T08:53:41;98633.59;;;5.12;100.00
5753;BME280;2901;42.140;24.760;2023-01-10T08:56:07;98639.59;;;5.18;100.00
5753;BME280;2901;42.140;24.760;2023-01-10T08:58:33;98628.47;;;5.19;100.00
5753;BME280;2901;42.140;24.760;2023-01-10T09:00:59;98636.16;;;5.16;100.00
5753;BME280;2901;42.140;24.760;2023-01-10T09:03:27;98627.59;;;5.08;100.00
5753;BME280;2901;42.140;24.760;2023-01-10T09:05:52;98633.56;;;5.10;100.00
5753;BME280;2901;42.140;24.760;2023-01-10T09:08:18;98635.31;;;5.10;100.00
5753;BME280;2901;42.140;24.760;2023-01-10T09:10:43;98619.91;;;5.11;100.00
5753;BME280;2901;42.140;24.760;2023-01-10T09:13:08;98600.25;;;5.19;100.00
5753;BME280;2901;42.140;24.760;2023-01-10T09:15:36;98587.41;;;5.27;100.00
5753;BME280;2901;42.140;24.760;2023-01-10T09:18:04;98595.13;;;5.33;100.00
5753;BME280;2901;42.140;24.760;2023-01-10T09:20:31;98589.97;;;5.36;100.00
5753;BME280;2901;42.140;24.760;2023-01-10T09:22:57;98591.69;;;5.33;100.00
5753;BME280;2901;42.140;24.760;2023-01-10T09:25:24;98587.38;;;5.44;100.00
5753;BME280;2901;42.140;24.760;2023-01-10T09:27:58;98576.25;;;5.57;100.00
5753;BME280;2901;42.140;24.760;2023-01-10T09:30:24;98571.09;;;5.60;100.00
5753;BME280;2901;42.140;24.760;2023-01-10T09:32:53;98566.84;;;5.60;100.00
5753;BME280;2901;42.140;24.760;2023-01-10T09:35:19;98556.56;;;5.62;100.00
5753;BME280;2901;42.140;24.760;2023-01-10T09:37:45;98558.28;;;5.63;100.00
5753;BME280;2901;42.140;24.760;2023-01-10T09:40:16;98545.44;;;5.58;100.00
5753;BME280;2901;42.140;24.760;2023-01-10T09:48:07;98525.81;;;5.39;100.00
5753;BME280;2901;42.140;24.760;2023-01-10T09:51:18;98534.31;;;5.53;100.00
5753;BME280;2901;42.140;24.760;2023-01-10T09:53:41;98530.91;;;5.57;100.00
5753;BME280;2901;42.140;24.760;2023-01-10T09:56:08;98523.16;;;5.63;100.00
5753;BME280;2901;42.140;24.760;2023-01-10T09:58:35;98512.06;;;5.66;100.00
5753;BME280;2901;42.140;24.760;2023-01-10T10:01:05;98509.47;;;5.72;100.00
5753;BME280;2901;42.140;24.760;2023-01-10T10:04:04;98504.31;;;5.75;100.00
5753;BME280;2901;42.140;24.760;2023-01-10T10:06:31;98501.72;;;5.83;100.00
5753;BME280;2901;42.140;24.760;2023-01-10T10:08:59;98502.56;;;5.83;100.00
5753;BME280;2901;42.140;24.760;2023-01-10T10:16:42;98486.31;;;5.92;100.00
5753;BME280;2901;42.140;24.760;2023-01-10T10:24:42;98465.59;;;6.22;100.00
5753;BME280;2901;42.140;24.760;2023-01-10T10:27:25;98461.31;;;6.19;100.00
5753;BME280;2901;42.140;24.760;2023-01-10T10:30:18;98450.19;;;6.16;100.00
5753;BME280;2901;42.140;24.760;2023-01-10T10:32:59;98443.47;;;5.98;100.00
5753;BME280;2901;42.140;24.760;2023-01-10T10:36:05;98436.59;;;6.00;100.00
5753;BME280;2901;42.140;24.760;2023-01-10T10:38:38;98428.91;;;5.97;100.00
5753;BME280;2901;42.140;24.760;2023-01-10T10:41:17;98434.06;;;5.91;100.00
5753;BME280;2901;42.140;24.760;2023-01-10T10:43:50;98415.25;;;5.92;100.00
5753;BME280;2901;42.140;24.760;2023-01-10T10:46:17;98409.25;;;5.81;100.00
5753;BME280;2901;42.140;24.760;2023-01-10T10:48:57;98389.66;;;5.60;100.00
5753;BME280;2901;42.140;24.760;2023-01-10T10:53:58;98399.13;;;5.55;100.00
5753;BME280;2901;42.140;24.760;2023-01-10T10:56:24;98401.63;;;5.67;100.00
5753;BME280;2901;42.140;24.760;2023-01-10T10:58:52;98392.19;;;5.71;100.00
5753;BME280;2901;42.140;24.760;2023-01-10T11:01:20;98401.59;;;5.75;100.00
5753;BME280;2901;42.140;24.760;2023-01-10T11:03:56;98396.44;;;5.73;100.00
5753;BME280;2901;42.140;24.760;2023-01-10T11:06:24;98400.69;;;5.81;100.00
5753;BME280;2901;42.140;24.760;2023-01-10T11:08:53;98399.81;;;5.95;100.00
5753;BME280;2901;42.140;24.760;2023-01-10T11:11:24;98374.91;;;6.03;100.00
5753;BME280;2901;42.140;24.760;2023-01-10T11:13:56;98362.91;;;6.04;100.00
5753;BME280;2901;42.140;24.760;2023-01-10T11:16:31;98357.78;;;6.04;100.00
5753;BME280;2901;42.140;24.760;2023-01-10T11:19:22;98359.47;;;6.06;100.00
5753;BME280;2901;42.140;24.760;2023-01-10T11:22:01;98348.38;;;6.01;100.00
5753;BME280;2901;42.140;24.760;2023-01-10T11:24:51;98340.72;;;5.94;100.00
5753;BME280;2901;42.140;24.760;2023-01-10T11:27:21;98321.03;;;5.91;100.00
5753;BME280;2901;42.140;24.760;2023-01-10T11:29:49;98323.63;;;5.93;100.00
5753;BME280;2901;42.140;24.760;2023-01-10T11:32:17;98340.66;;;6.00;100.00
5753;BME280;2901;42.140;24.760;2023-01-10T11:34:52;98338.06;;;6.04;100.00
5753;BME280;2901;42.140;24.760;2023-01-10T11:37:23;98347.47;;;6.11;100.00
5753;BME280;2901;42.140;24.760;2023-01-10T11:40:21;98341.44;;;6.15;100.00
5753;BME280;2901;42.140;24.760;2023-01-10T11:42:48;98343.13;;;6.16;100.00
5753;BME280;2901;42.140;24.760;2023-01-10T11:47:46;98323.22;;;6.41;100.00
5753;BME280;2901;42.140;24.760;2023-01-10T11:52:48;98329.16;;;6.46;100.00
5753;BME280;2901;42.140;24.760;2023-01-10T11:55:23;98324.78;;;6.56;100.00
5753;BME280;2901;42.140;24.760;2023-01-10T12:00:30;98323.75;;;6.75;100.00
5753;BME280;2901;42.140;24.760;2023-01-10T12:02:57;98327.94;;;6.82;100.00
5753;BME280;2901;42.140;24.760;2023-01-10T12:05:22;98315.91;;;6.87;100.00
5753;BME280;2901;42.140;24.760;2023-01-10T12:08:03;98309.84;;;6.94;100.00
5753;BME280;2901;42.140;24.760;2023-01-10T12:10:31;98321.72;;;7.04;100.00
5753;BME280;2901;42.140;24.760;2023-01-10T12:13:05;98315.69;;;7.05;100.00
5753;BME280;2901;42.140;24.760;2023-01-10T12:15:32;98326.91;;;7.01;100.00
5753;BME280;2901;42.140;24.760;2023-01-10T12:18:01;98315.91;;;6.87;100.00
5753;BME280;2901;42.140;24.760;2023-01-10T12:20:29;98316.84;;;6.80;100.00
5753;BME280;2901;42.140;24.760;2023-01-10T12:22:59;98321.16;;;6.78;100.00
5753;BME280;2901;42.140;24.760;2023-01-10T12:25:32;98343.44;;;6.76;100.00
5753;BME280;2901;42.140;24.760;2023-01-10T12:27:59;98348.72;;;6.62;100.00
5753;BME280;2901;42.140;24.760;2023-01-10T12:30:30;98350.41;;;6.66;100.00
5753;BME280;2901;42.140;24.760;2023-01-10T12:32:59;98355.44;;;6.75;100.00
5753;BME280;2901;42.140;24.760;2023-01-10T12:35:54;98352.00;;;6.81;100.00
5753;BME280;2901;42.140;24.760;2023-01-10T12:41:14;98356.31;;;6.76;100.00
5753;BME280;2901;42.140;24.760;2023-01-10T12:44:04;98356.34;;;6.73;100.00
5753;BME280;2901;42.140;24.760;2023-01-10T12:46:44;98340.84;;;6.81;100.00
5753;BME280;2901;42.140;24.760;2023-01-10T12:51:49;98306.38;;;6.95;100.00
5753;BME280;2901;42.140;24.760;2023-01-10T12:54:22;98295.13;;;7.04;100.00
5753;BME280;2901;42.140;24.760;2023-01-10T12:56:49;98296.66;;;7.18;100.00
5753;BME280;2901;42.140;24.760;2023-01-10T12:59:39;98299.06;;;7.34;100.00
5753;BME280;2901;42.140;24.760;2023-01-10T13:02:14;98292.00;;;7.45;100.00
5753;BME280;2901;42.140;24.760;2023-01-10T13:04:43;98297.03;;;7.57;100.00
5753;BME280;2901;42.140;24.760;2023-01-10T13:07:12;98298.78;;;7.53;100.00
5753;BME280;2901;42.140;24.760;2023-01-10T13:09:40;98302.25;;;7.51;100.00
5753;BME280;2901;42.140;24.760;2023-01-10T13:12:13;98342.56;;;7.52;100.00
5753;BME280;2901;42.140;24.760;2023-01-10T13:14:56;98334.06;;;7.45;100.00
5753;BME280;2901;42.140;24.760;2023-01-10T13:22:42;98324.94;;;7.21;100.00
5753;BME280;2901;42.140;24.760;2023-01-10T13:28:05;98300.72;;;7.35;100.00
5753;BME280;2901;42.140;24.760;2023-01-10T13:30:37;98292.19;;;7.34;100.00
5753;BME280;2901;42.140;24.760;2023-01-10T13:33:27;98287.25;;;7.17;100.00
5753;BME280;2901;42.140;24.760;2023-01-10T13:35:56;98281.31;;;7.09;100.00
5753;BME280;2901;42.140;24.760;2023-01-10T13:38:49;98292.41;;;7.17;100.00
5753;BME280;2901;42.140;24.760;2023-01-10T13:41:16;98318.72;;;7.38;100.00
5753;BME280;2901;42.140;24.760;2023-01-10T13:44:03;98330.56;;;7.52;100.00
5753;BME280;2901;42.140;24.760;2023-01-10T13:51:26;98320.78;;;7.08;100.00
5753;BME280;2901;42.140;24.760;2023-01-10T13:54:03;98329.38;;;7.10;100.00
5753;BME280;2901;42.140;24.760;2023-01-10T13:56:38;98348.06;;;7.24;100.00
5753;BME280;2901;42.140;24.760;2023-01-10T13:59:13;98338.53;;;7.32;100.00
5753;BME280;2901;42.140;24.760;2023-01-10T14:02:24;98322.31;;;7.26;100.00
5753;BME280;2901;42.140;24.760;2023-01-10T14:04:56;98322.25;;;7.30;100.00
5753;BME280;2901;42.140;24.760;2023-01-10T14:07:29;98323.97;;;7.28;100.00
5753;BME280;2901;42.140;24.760;2023-01-10T14:10:04;98330.97;;;7.20;100.00
5753;BME280;2901;42.140;24.760;2023-01-10T14:12:36;98340.31;;;7.26;100.00
5753;BME280;2901;42.140;24.760;2023-01-10T14:15:07;98337.84;;;7.18;100.00
5753;BME280;2901;42.140;24.760;2023-01-10T14:17:54;98333.66;;;7.10;100.00
5753;BME280;2901;42.140;24.760;2023-01-10T14:20:20;98313.25;;;6.92;100.00
5753;BME280;2901;42.140;24.760;2023-01-10T14:25:41;98339.84;;;6.92;100.00
5753;BME280;2901;42.140;24.760;2023-01-10T14:28:19;98335.59;;;6.91;100.00
5753;BME280;2901;42.140;24.760;2023-01-10T14:30:56;98335.66;;;6.84;100.00
5753;BME280;2901;42.140;24.760;2023-01-10T14:33:24;98335.63;;;6.85;100.00
5753;BME280;2901;42.140;24.760;2023-01-10T14:35:53;98335.63;;;6.85;100.00
5753;BME280;2901;42.140;24.760;2023-01-10T14:38:24;98351.19;;;6.73;100.00
5753;BME280;2901;42.140;24.760;2023-01-10T14:40:52;98353.78;;;6.74;100.00
5753;BME280;2901;42.140;24.760;2023-01-10T14:43:28;98350.28;;;6.82;100.00